Time;durP1;ratioP1;P1;durP2;ratioP2;P2;SDS_P1;SDS_P2;PMS_P1;PMS_P2;Temp;Humidity;BMP_temperature;BMP_pressure;BME280_temperature;BME280_humidity;BME280_pressure;Samples;Min_cycle;Max_cycle;Signal;HPM_P1;HPM_P2
2021/10/24 00:00:43;;;;;;;6.45;5.05;;;3.80;91.90;;;;;;4980999;28;20014;-70
2021/10/24 00:03:09;;;;;;;9.60;4.72;;;3.80;91.90;;;;;;4972563;28;20105;-70
2021/10/24 00:05:34;;;;;;;11.27;5.78;;;3.70;91.90;;;;;;4989552;28;20510;-70
2021/10/24 00:08:00;;;;;;;11.85;5.00;;;3.80;91.90;;;;;;4989060;28;20027;-70
2021/10/24 00:10:25;;;;;;;7.85;4.65;;;3.80;91.90;;;;;;4990470;28;20058;-70
2021/10/24 00:12:51;;;;;;;7.65;4.50;;;3.70;91.90;;;;;;4991588;28;20509;-70
2021/10/24 00:15:17;;;;;;;7.47;5.18;;;3.80;92.00;;;;;;4973988;28;20034;-70
2021/10/24 00:17:42;;;;;;;8.55;4.32;;;3.80;92.00;;;;;;4974398;28;20728;-70
2021/10/24 00:20:09;;;;;;;8.40;4.25;;;3.70;92.00;;;;;;4974499;28;20084;-70
2021/10/24 00:22:34;;;;;;;10.18;4.75;;;3.70;92.00;;;;;;4989937;28;20034;-70
2021/10/24 00:25:00;;;;;;;6.82;4.55;;;3.70;92.00;;;;;;4986847;28;20483;-70
2021/10/24 00:27:26;;;;;;;5.10;4.07;;;3.70;92.00;;;;;;4972950;28;20132;-70
2021/10/24 00:29:52;;;;;;;9.05;5.10;;;3.70;91.90;;;;;;4970047;28;20026;-70
2021/10/24 00:32:17;;;;;;;9.88;4.80;;;3.70;91.90;;;;;;4964785;28;20038;-70
2021/10/24 00:34:43;;;;;;;6.72;4.47;;;3.60;91.90;;;;;;4991099;28;20030;-70
2021/10/24 00:37:09;;;;;;;8.70;4.95;;;3.60;91.90;;;;;;4974097;28;20033;-70
2021/10/24 00:39:34;;;;;;;10.65;4.88;;;3.60;92.00;;;;;;4974297;28;20022;-70
2021/10/24 00:42:00;;;;;;;13.32;5.13;;;3.60;92.00;;;;;;4974269;28;20054;-70
2021/10/24 00:44:28;;;;;;;8.35;4.30;;;3.60;92.00;;;;;;4990701;28;20040;-70
2021/10/24 00:46:56;;;;;;;7.65;4.53;;;3.60;92.00;;;;;;4991620;28;20380;-70
2021/10/24 00:49:23;;;;;;;8.75;4.60;;;3.60;92.00;;;;;;4991898;28;20483;-70
2021/10/24 00:51:50;;;;;;;8.50;4.78;;;3.60;92.00;;;;;;4974747;28;20038;-70
2021/10/24 00:54:20;;;;;;;11.10;4.90;;;3.60;92.10;;;;;;4989243;28;20022;-70
2021/10/24 00:56:49;;;;;;;8.90;4.65;;;3.60;92.10;;;;;;4991161;28;20058;-70
2021/10/24 00:59:16;;;;;;;7.95;4.43;;;3.60;92.10;;;;;;4973259;28;20113;-70
2021/10/24 01:01:42;;;;;;;6.80;4.28;;;3.60;92.10;;;;;;4971878;28;20030;-70
2021/10/24 01:04:08;;;;;;;6.28;4.13;;;3.60;92.10;;;;;;4973061;28;20034;-70
2021/10/24 01:06:37;;;;;;;8.57;4.68;;;3.60;92.10;;;;;;4990893;28;20521;-70
2021/10/24 01:09:10;;;;;;;7.18;4.65;;;3.60;92.10;;;;;;4990536;28;20022;-70
2021/10/24 01:11:36;;;;;;;6.28;4.63;;;3.60;92.30;;;;;;4991218;28;20428;-70
2021/10/24 01:14:01;;;;;;;9.00;4.82;;;3.50;92.10;;;;;;4977523;28;20061;-70
2021/10/24 01:16:27;;;;;;;7.45;4.78;;;3.50;92.00;;;;;;4990228;28;20045;-71
2021/10/24 01:18:52;;;;;;;8.20;4.97;;;3.50;92.00;;;;;;4991369;28;20049;-70
2021/10/24 01:21:19;;;;;;;10.07;4.70;;;3.40;92.00;;;;;;4991402;28;20602;-69
2021/10/24 01:23:45;;;;;;;12.50;4.93;;;3.40;92.00;;;;;;4967068;28;20026;-70
2021/10/24 01:26:12;;;;;;;10.93;4.88;;;3.30;92.00;;;;;;4979143;28;20026;-71
2021/10/24 01:28:38;;;;;;;10.60;5.18;;;3.30;92.00;;;;;;4972554;28;20026;-69
2021/10/24 01:31:04;;;;;;;8.50;4.80;;;3.20;92.00;;;;;;4990327;28;20093;-69
2021/10/24 01:33:30;;;;;;;10.07;5.03;;;3.20;92.10;;;;;;4989335;28;20033;-70
2021/10/24 01:36:06;;;;;;;12.98;4.15;;;3.20;92.10;;;;;;4985916;28;20019;-71
2021/10/24 01:38:33;;;;;;;8.57;4.82;;;3.20;92.20;;;;;;4990477;28;20471;-70
2021/10/24 01:40:59;;;;;;;10.50;4.43;;;3.10;92.20;;;;;;4978944;28;20036;-70
2021/10/24 01:43:27;;;;;;;7.90;4.10;;;3.20;92.30;;;;;;4992994;28;20026;-69
2021/10/24 01:45:53;;;;;;;8.55;4.55;;;3.20;92.30;;;;;;4973053;28;20018;-69
2021/10/24 01:48:19;;;;;;;8.93;5.00;;;3.20;92.30;;;;;;4990734;28;20403;-69
2021/10/24 01:50:45;;;;;;;14.13;4.40;;;3.30;92.40;;;;;;4991013;28;20038;-70
2021/10/24 01:53:16;;;;;;;9.27;4.65;;;3.30;92.40;;;;;;4973183;28;20053;-70
2021/10/24 01:55:41;;;;;;;10.30;4.93;;;3.20;92.40;;;;;;4973514;28;20063;-69
2021/10/24 01:58:07;;;;;;;10.90;4.50;;;3.30;92.40;;;;;;4991099;28;20034;-70
2021/10/24 02:00:33;;;;;;;7.57;4.25;;;3.30;92.40;;;;;;4990546;28;20038;-70
2021/10/24 02:02:59;;;;;;;8.90;4.40;;;3.30;92.40;;;;;;4990036;28;20068;-70
2021/10/24 02:05:25;;;;;;;10.00;4.45;;;3.30;92.50;;;;;;4965645;28;20038;-70
2021/10/24 02:07:50;;;;;;;8.27;4.22;;;3.20;92.50;;;;;;4972575;28;20026;-71
2021/10/24 02:10:17;;;;;;;7.03;4.22;;;3.30;92.50;;;;;;4973161;28;20369;-70
2021/10/24 02:12:43;;;;;;;11.70;4.57;;;3.30;92.50;;;;;;4990094;28;20096;-69
2021/10/24 02:15:11;;;;;;;6.93;4.30;;;3.30;92.60;;;;;;4990530;28;20065;-70
2021/10/24 02:17:37;;;;;;;6.13;4.13;;;3.30;92.60;;;;;;4973260;28;20117;-71
2021/10/24 02:20:04;;;;;;;11.82;4.72;;;3.20;92.60;;;;;;4990865;28;20055;-72
2021/10/24 02:22:31;;;;;;;8.02;3.88;;;3.20;92.60;;;;;;4989570;28;20029;-69
2021/10/24 02:24:56;;;;;;;8.95;4.13;;;3.20;92.60;;;;;;4985656;28;20026;-72
2021/10/24 02:27:22;;;;;;;6.80;4.18;;;3.20;92.60;;;;;;4972924;28;20034;-69
2021/10/24 02:29:48;;;;;;;6.65;3.97;;;3.20;92.60;;;;;;4990687;28;20425;-69
2021/10/24 02:32:14;;;;;;;7.88;4.13;;;3.20;92.70;;;;;;4990254;28;20117;-69
2021/10/24 02:34:40;;;;;;;9.43;4.22;;;3.10;92.70;;;;;;4987004;28;20062;-69
2021/10/24 02:37:07;;;;;;;7.47;4.40;;;3.10;92.70;;;;;;4961493;28;20027;-70
2021/10/24 02:39:33;;;;;;;8.50;4.25;;;3.10;92.70;;;;;;4970180;28;20030;-72
2021/10/24 02:41:59;;;;;;;5.88;4.05;;;3.10;92.80;;;;;;4980878;28;20022;-72
2021/10/24 02:44:24;;;;;;;10.13;4.53;;;3.10;92.80;;;;;;4989608;28;20038;-70
2021/10/24 02:46:52;;;;;;;7.65;3.88;;;3.10;92.80;;;;;;4973319;28;20030;-70
2021/10/24 02:49:18;;;;;;;7.93;3.60;;;3.10;92.80;;;;;;4989314;28;20030;-71
2021/10/24 02:51:44;;;;;;;7.15;4.10;;;3.00;92.90;;;;;;4972931;28;20034;-71
2021/10/24 02:54:10;;;;;;;7.05;4.43;;;3.00;92.90;;;;;;4988780;28;20494;-71
2021/10/24 02:56:35;;;;;;;7.53;3.90;;;3.00;92.90;;;;;;4990232;28;20060;-71
2021/10/24 02:59:01;;;;;;;7.72;4.07;;;3.00;92.90;;;;;;4972658;28;20484;-71
2021/10/24 03:01:27;;;;;;;7.10;3.90;;;3.00;92.90;;;;;;4990041;28;20034;-71
2021/10/24 03:03:52;;;;;;;6.72;4.13;;;2.90;92.90;;;;;;4989795;28;20398;-70
2021/10/24 03:06:18;;;;;;;13.00;4.45;;;2.90;93.00;;;;;;4956685;28;20031;-70
2021/10/24 03:08:44;;;;;;;11.63;4.18;;;2.90;92.90;;;;;;4989397;28;20037;-70
2021/10/24 03:11:09;;;;;;;6.28;3.75;;;2.90;93.00;;;;;;4990050;28;20029;-71
2021/10/24 03:13:35;;;;;;;8.93;3.80;;;2.90;93.00;;;;;;4988683;28;20015;-70
2021/10/24 03:16:01;;;;;;;7.38;4.28;;;2.80;92.90;;;;;;4971734;28;20117;-71
2021/10/24 03:18:27;;;;;;;6.25;4.07;;;2.80;93.00;;;;;;4991526;28;20102;-70
2021/10/24 03:20:53;;;;;;;7.53;4.47;;;2.80;93.00;;;;;;4993927;28;20501;-70
2021/10/24 03:23:18;;;;;;;8.63;4.10;;;2.80;93.00;;;;;;4981127;28;20034;-70
2021/10/24 03:25:44;;;;;;;7.43;3.90;;;2.80;93.00;;;;;;4985429;28;20369;-71
2021/10/24 03:28:10;;;;;;;6.70;4.22;;;2.80;93.00;;;;;;4992608;28;20471;-70
2021/10/24 03:30:36;;;;;;;9.45;4.30;;;2.80;93.10;;;;;;4993692;28;20041;-70
2021/10/24 03:33:01;;;;;;;7.18;4.35;;;2.80;93.10;;;;;;4974540;28;20518;-70
2021/10/24 03:35:27;;;;;;;6.85;4.10;;;2.80;93.10;;;;;;4983968;28;20070;-70
2021/10/24 03:37:53;;;;;;;9.23;4.30;;;2.80;93.10;;;;;;4985565;28;20026;-70
2021/10/24 03:40:18;;;;;;;8.52;4.40;;;2.80;93.10;;;;;;4973673;28;20030;-70
2021/10/24 03:42:44;;;;;;;8.32;4.07;;;2.80;93.10;;;;;;4992054;28;20562;-70
2021/10/24 03:45:10;;;;;;;7.80;4.40;;;2.70;93.10;;;;;;4993219;28;20030;-70
2021/10/24 03:47:36;;;;;;;6.55;4.50;;;2.70;93.20;;;;;;4992194;28;20018;-70
2021/10/24 03:50:03;;;;;;;8.20;4.57;;;2.70;93.20;;;;;;4985811;28;20365;-71
2021/10/24 03:52:29;;;;;;;9.35;4.22;;;2.70;93.30;;;;;;4988865;28;20035;-71
2021/10/24 03:54:55;;;;;;;6.47;4.20;;;2.70;93.30;;;;;;4973472;28;20049;-71
2021/10/24 03:57:20;;;;;;;12.35;4.35;;;2.70;93.30;;;;;;4993458;28;20509;-71
2021/10/24 03:59:46;;;;;;;10.60;4.65;;;2.70;93.30;;;;;;4992740;28;20031;-72
2021/10/24 04:02:11;;;;;;;9.10;4.22;;;2.70;93.40;;;;;;4974897;28;20060;-71
2021/10/24 04:04:38;;;;;;;6.30;4.43;;;2.70;93.30;;;;;;4989091;28;20109;-71
2021/10/24 04:07:04;;;;;;;8.80;4.57;;;2.60;93.30;;;;;;4979554;28;20025;-72
2021/10/24 04:09:30;;;;;;;8.48;4.32;;;2.60;93.30;;;;;;4992740;28;20029;-71
2021/10/24 04:11:56;;;;;;;10.98;4.70;;;2.60;93.40;;;;;;4993006;28;20034;-71
2021/10/24 04:14:24;;;;;;;10.27;4.45;;;2.60;93.40;;;;;;4991077;28;20034;-72
2021/10/24 04:16:50;;;;;;;7.50;4.70;;;2.60;93.40;;;;;;4992506;28;20026;-71
2021/10/24 04:19:15;;;;;;;9.32;4.80;;;2.60;93.40;;;;;;4991703;28;20026;-71
2021/10/24 04:21:41;;;;;;;10.63;4.53;;;2.60;93.40;;;;;;4972892;28;20476;-72
2021/10/24 04:24:06;;;;;;;9.50;4.25;;;2.60;93.40;;;;;;4986177;28;20743;-71
2021/10/24 04:26:32;;;;;;;11.05;4.63;;;2.60;93.40;;;;;;4972962;28;20054;-72
2021/10/24 04:28:58;;;;;;;7.57;4.15;;;2.60;93.40;;;;;;4985639;28;20031;-71
2021/10/24 04:31:23;;;;;;;5.97;3.80;;;2.70;93.40;;;;;;4992083;28;20026;-71
2021/10/24 04:33:49;;;;;;;10.18;3.95;;;2.60;93.40;;;;;;4991010;28;20034;-72
2021/10/24 04:36:15;;;;;;;10.27;4.70;;;2.60;93.40;;;;;;4983415;28;20080;-73
2021/10/24 04:38:40;;;;;;;8.32;4.32;;;2.60;93.40;;;;;;4965830;28;20054;-72
2021/10/24 04:41:06;;;;;;;9.85;4.30;;;2.60;93.40;;;;;;4991873;28;20026;-72
2021/10/24 04:43:31;;;;;;;6.82;4.00;;;2.50;93.40;;;;;;4990249;28;20129;-72
2021/10/24 04:45:57;;;;;;;6.25;4.05;;;2.50;93.40;;;;;;4974349;28;20101;-72
2021/10/24 04:48:23;;;;;;;6.40;4.00;;;2.50;93.40;;;;;;4973725;28;20030;-71
2021/10/24 04:50:49;;;;;;;6.53;3.92;;;2.50;93.40;;;;;;4993185;28;20034;-71
2021/10/24 04:53:14;;;;;;;7.03;3.75;;;2.50;93.40;;;;;;4973380;28;20167;-71
2021/10/24 04:55:43;;;;;;;7.07;4.28;;;2.50;93.50;;;;;;4991435;28;20034;-71
2021/10/24 04:58:09;;;;;;;7.28;3.97;;;2.50;93.40;;;;;;4991963;28;20030;-71
2021/10/24 05:00:35;;;;;;;6.22;3.80;;;2.50;93.40;;;;;;4974036;28;20394;-71
2021/10/24 05:03:00;;;;;;;7.15;3.83;;;2.40;93.40;;;;;;4990310;28;20041;-71
2021/10/24 05:05:26;;;;;;;6.78;4.03;;;2.40;93.40;;;;;;4971390;28;20034;-71
2021/10/24 05:07:52;;;;;;;8.25;4.05;;;2.40;93.40;;;;;;4963685;28;20229;-72
2021/10/24 05:10:18;;;;;;;6.10;4.30;;;2.40;93.40;;;;;;4974065;28;20031;-71
2021/10/24 05:12:44;;;;;;;6.03;3.83;;;2.40;93.40;;;;;;4990299;28;20172;-71
2021/10/24 05:15:10;;;;;;;6.93;4.38;;;2.40;93.40;;;;;;4973544;28;20027;-71
2021/10/24 05:17:36;;;;;;;10.48;4.07;;;2.30;93.30;;;;;;4972512;28;20030;-71
2021/10/24 05:20:02;;;;;;;7.28;4.43;;;2.30;93.30;;;;;;4991085;28;20089;-71
2021/10/24 05:22:28;;;;;;;5.45;3.58;;;2.30;93.40;;;;;;4972030;28;20050;-71
2021/10/24 05:24:53;;;;;;;7.03;4.20;;;2.20;93.40;;;;;;4967541;28;20035;-71
2021/10/24 05:27:19;;;;;;;9.07;4.13;;;2.20;93.40;;;;;;4997411;28;20097;-71
2021/10/24 05:29:44;;;;;;;8.25;3.90;;;2.20;93.40;;;;;;4991084;28;20471;-71
2021/10/24 05:32:10;;;;;;;5.63;3.95;;;2.20;93.50;;;;;;4990126;28;20449;-70
2021/10/24 05:34:36;;;;;;;5.88;4.07;;;2.20;93.50;;;;;;4987106;28;20030;-71
2021/10/24 05:37:01;;;;;;;5.85;3.88;;;2.20;93.50;;;;;;4972061;28;20085;-70
2021/10/24 05:39:27;;;;;;;6.93;4.35;;;2.20;93.50;;;;;;4989727;28;20127;-70
2021/10/24 05:41:52;;;;;;;9.55;3.83;;;2.20;93.50;;;;;;4987258;28;20026;-71
2021/10/24 05:44:21;;;;;;;6.70;3.83;;;2.20;93.50;;;;;;4990774;28;20030;-71
2021/10/24 05:46:48;;;;;;;9.02;3.78;;;2.10;93.50;;;;;;4977791;28;20066;-71
2021/10/24 05:49:15;;;;;;;6.95;4.05;;;2.20;93.50;;;;;;4983392;28;20015;-71
2021/10/24 05:51:41;;;;;;;5.90;3.70;;;2.10;93.50;;;;;;4989599;28;20406;-72
2021/10/24 05:54:07;;;;;;;7.32;3.92;;;2.20;93.50;;;;;;4989804;28;20565;-72
2021/10/24 05:56:32;;;;;;;6.32;3.70;;;2.20;93.60;;;;;;4975309;28;20030;-72
2021/10/24 05:58:58;;;;;;;7.68;4.13;;;2.20;93.50;;;;;;4965807;28;20475;-73
2021/10/24 06:01:23;;;;;;;6.88;3.67;;;2.20;93.50;;;;;;4987301;28;20065;-72
2021/10/24 06:03:49;;;;;;;9.35;4.00;;;2.20;93.50;;;;;;4972361;28;20022;-72
2021/10/24 06:06:14;;;;;;;7.38;3.83;;;2.20;93.50;;;;;;4973032;28;20030;-71
2021/10/24 06:08:41;;;;;;;10.40;3.90;;;2.20;93.50;;;;;;4990552;28;20109;-72
2021/10/24 06:11:14;;;;;;;9.10;4.35;;;2.20;93.50;;;;;;4990014;28;20390;-72
2021/10/24 06:13:41;;;;;;;7.28;3.78;;;2.20;93.50;;;;;;4989106;28;20025;-72
2021/10/24 06:16:07;;;;;;;7.97;4.00;;;2.20;93.50;;;;;;4988323;28;20022;-71
2021/10/24 06:18:33;;;;;;;8.68;3.72;;;2.20;93.50;;;;;;4990771;28;20026;-73
2021/10/24 06:20:58;;;;;;;8.60;3.97;;;2.10;93.50;;;;;;4974217;28;20094;-73
2021/10/24 06:23:24;;;;;;;9.38;4.30;;;2.10;93.50;;;;;;4971057;28;20117;-71
2021/10/24 06:25:49;;;;;;;9.35;4.20;;;2.20;93.50;;;;;;4983668;28;20078;-72
2021/10/24 06:28:15;;;;;;;10.95;4.03;;;2.20;93.50;;;;;;4986050;28;20025;-71
2021/10/24 06:30:42;;;;;;;7.55;3.50;;;2.50;93.50;;;;;;4967536;28;20028;-72
2021/10/24 06:33:07;;;;;;;5.97;3.50;;;2.70;93.40;;;;;;4989141;28;20379;-71
2021/10/24 06:35:34;;;;;;;5.32;3.13;;;2.80;93.50;;;;;;4988991;28;20041;-68
2021/10/24 06:37:59;;;;;;;6.85;3.10;;;3.00;93.60;;;;;;4990408;28;20041;-69
2021/10/24 06:40:25;;;;;;;7.55;3.72;;;3.30;93.30;;;;;;4988523;28;20391;-69
2021/10/24 06:42:50;;;;;;;7.15;3.20;;;3.80;92.90;;;;;;4985543;28;20034;-70
2021/10/24 06:45:16;;;;;;;5.18;2.95;;;4.00;92.60;;;;;;4991586;28;20038;-69
2021/10/24 06:47:42;;;;;;;8.27;3.17;;;4.20;92.60;;;;;;4970282;28;20018;-68
2021/10/24 06:50:10;;;;;;;4.50;2.40;;;4.30;92.60;;;;;;4990229;28;20078;-69
2021/10/24 06:52:36;;;;;;;6.07;3.17;;;4.40;92.70;;;;;;4999146;28;20027;-69
2021/10/24 06:55:03;;;;;;;6.32;2.83;;;4.80;92.50;;;;;;4994128;28;20038;-68
2021/10/24 06:57:29;;;;;;;6.03;2.70;;;5.20;92.00;;;;;;4973684;28;20552;-68
2021/10/24 06:59:54;;;;;;;6.43;3.35;;;5.60;91.60;;;;;;4990880;28;20030;-69
2021/10/24 07:02:20;;;;;;;7.60;3.17;;;6.10;91.30;;;;;;4988803;28;20174;-69
2021/10/24 07:04:46;;;;;;;4.18;2.70;;;6.40;91.00;;;;;;4992069;28;20069;-70
2021/10/24 07:07:11;;;;;;;8.68;2.63;;;6.50;90.90;;;;;;4994648;28;20038;-71
2021/10/24 07:09:38;;;;;;;3.88;2.40;;;6.80;90.80;;;;;;4977764;28;20030;-69
2021/10/24 07:12:04;;;;;;;5.13;3.00;;;7.20;90.50;;;;;;4993508;28;20034;-70
2021/10/24 07:14:29;;;;;;;4.10;2.95;;;7.50;90.10;;;;;;4993132;28;20030;-70
2021/10/24 07:16:56;;;;;;;4.38;3.17;;;7.80;89.70;;;;;;4993751;28;20073;-70
2021/10/24 07:19:22;;;;;;;3.55;2.58;;;8.10;89.00;;;;;;4976539;28;20036;-70
2021/10/24 07:21:48;;;;;;;5.60;2.80;;;8.30;88.80;;;;;;4993260;28;20049;-71
2021/10/24 07:24:14;;;;;;;5.38;2.40;;;8.30;89.10;;;;;;4991576;28;20058;-70
2021/10/24 07:26:40;;;;;;;6.53;2.75;;;8.50;89.10;;;;;;4971589;28;20069;-70
2021/10/24 07:29:06;;;;;;;3.65;2.92;;;8.80;88.50;;;;;;4985596;28;20031;-71
2021/10/24 07:31:31;;;;;;;6.15;3.25;;;9.00;88.10;;;;;;4986673;28;20018;-71
2021/10/24 07:33:57;;;;;;;3.67;2.80;;;9.20;87.80;;;;;;4992255;28;20035;-70
2021/10/24 07:36:23;;;;;;;3.92;2.70;;;9.30;87.80;;;;;;4992859;28;20026;-70
2021/10/24 07:38:48;;;;;;;3.55;2.80;;;9.40;88.30;;;;;;4975533;28;20026;-70
2021/10/24 07:41:14;;;;;;;5.00;2.83;;;9.50;88.90;;;;;;4993208;28;20718;-71
2021/10/24 07:43:40;;;;;;;4.32;2.42;;;9.40;89.30;;;;;;4990244;28;20075;-70
2021/10/24 07:46:06;;;;;;;4.53;3.00;;;9.50;89.80;;;;;;4992874;28;20102;-70
2021/10/24 07:48:32;;;;;;;3.33;2.70;;;9.50;89.70;;;;;;4975606;28;20026;-70
2021/10/24 07:50:58;;;;;;;4.20;2.85;;;9.50;89.30;;;;;;4991350;28;20471;-72
2021/10/24 07:53:26;;;;;;;3.40;2.72;;;9.50;88.90;;;;;;4988223;28;20482;-72
2021/10/24 07:55:53;;;;;;;4.38;2.38;;;9.50;89.10;;;;;;4991447;28;20117;-70
2021/10/24 07:58:20;;;;;;;4.10;2.67;;;9.50;89.30;;;;;;4973105;28;20491;-68
2021/10/24 08:00:47;;;;;;;5.60;2.60;;;9.50;89.10;;;;;;4990148;28;20027;-71
2021/10/24 08:03:13;;;;;;;4.03;2.33;;;9.50;89.10;;;;;;4989359;28;20037;-71
2021/10/24 08:05:38;;;;;;;6.32;3.10;;;9.50;89.20;;;;;;4988532;28;20038;-69
2021/10/24 08:08:04;;;;;;;5.70;3.05;;;9.50;88.90;;;;;;4974881;28;20034;-69
2021/10/24 08:10:30;;;;;;;5.10;2.60;;;9.50;88.30;;;;;;4991945;28;20027;-69
2021/10/24 08:12:55;;;;;;;3.28;2.65;;;9.50;88.10;;;;;;4971249;28;20034;-70
2021/10/24 08:15:21;;;;;;;3.72;2.53;;;9.50;88.10;;;;;;4989640;28;20034;-69
2021/10/24 08:17:48;;;;;;;3.95;2.60;;;9.60;88.30;;;;;;4992780;28;20486;-68
2021/10/24 08:20:14;;;;;;;5.30;3.35;;;9.60;88.00;;;;;;4992943;28;20034;-68
2021/10/24 08:22:40;;;;;;;6.65;2.67;;;9.70;88.00;;;;;;4991067;28;20448;-68
2021/10/24 08:25:06;;;;;;;3.75;2.80;;;9.80;87.80;;;;;;4993283;28;20053;-69
2021/10/24 08:27:32;;;;;;;4.57;2.75;;;9.90;87.60;;;;;;4974396;28;20786;-69
2021/10/24 08:29:59;;;;;;;2.88;2.50;;;9.90;87.00;;;;;;4987384;28;20045;-69
2021/10/24 08:32:25;;;;;;;7.50;3.10;;;9.90;86.70;;;;;;4989809;28;20030;-68
2021/10/24 08:34:51;;;;;;;6.18;3.33;;;9.80;86.50;;;;;;4991779;28;20034;-68
2021/10/24 08:37:16;;;;;;;7.43;2.92;;;9.80;86.40;;;;;;4992586;28;20038;-69
2021/10/24 08:39:42;;;;;;;8.00;2.90;;;9.80;86.70;;;;;;4991917;28;20531;-69
2021/10/24 08:42:09;;;;;;;5.53;3.47;;;9.80;86.80;;;;;;4992733;28;20038;-69
2021/10/24 08:44:35;;;;;;;8.20;3.47;;;9.90;86.70;;;;;;4973420;28;20176;-68
2021/10/24 08:47:03;;;;;;;5.28;3.25;;;10.00;86.70;;;;;;4993084;28;20046;-68
2021/10/24 08:49:28;;;;;;;4.47;2.85;;;10.10;86.70;;;;;;4992009;28;20057;-68
2021/10/24 08:51:54;;;;;;;5.55;3.20;;;10.20;86.80;;;;;;4992838;28;20049;-68
2021/10/24 08:54:27;;;;;;;6.50;3.00;;;10.30;86.50;;;;;;4991371;28;20030;-68
2021/10/24 08:56:55;;;;;;;7.15;3.08;;;10.40;86.40;;;;;;4992782;28;20061;-68
2021/10/24 08:59:20;;;;;;;6.93;3.10;;;10.50;86.40;;;;;;4984029;28;20037;-67
2021/10/24 09:01:54;;;;;;;6.93;3.03;;;10.60;86.40;;;;;;4973590;28;20034;-68
2021/10/24 09:04:21;;;;;;;5.53;3.20;;;10.70;86.20;;;;;;4988979;28;20026;-68
2021/10/24 09:06:49;;;;;;;6.45;3.00;;;10.80;86.30;;;;;;4992161;28;20113;-68
2021/10/24 09:09:22;;;;;;;3.92;2.70;;;10.90;86.40;;;;;;4990058;28;20034;-68
2021/10/24 09:12:01;;;;;;;5.90;3.20;;;11.00;86.30;;;;;;4984426;28;20026;-68
2021/10/24 09:14:48;;;;;;;6.13;2.90;;;11.20;86.10;;;;;;4989914;28;20072;-68
2021/10/24 09:17:30;;;;;;;4.75;3.13;;;11.40;85.80;;;;;;4992141;28;20026;-68
2021/10/24 09:19:58;;;;;;;8.15;2.97;;;11.50;85.50;;;;;;4973530;28;20034;-68
2021/10/24 09:22:30;;;;;;;4.00;2.80;;;11.60;85.20;;;;;;4985656;28;20027;-69
2021/10/24 09:25:10;;;;;;;6.30;3.08;;;11.60;85.20;;;;;;4986084;28;20064;-70
2021/10/24 09:27:42;;;;;;;4.50;2.60;;;11.70;84.90;;;;;;4987930;28;20030;-69
2021/10/24 09:30:11;;;;;;;5.28;3.10;;;11.80;84.80;;;;;;4990062;28;20072;-68
2021/10/24 09:33:02;;;;;;;5.00;3.15;;;11.90;84.50;;;;;;4970662;28;20200;-68
2021/10/24 09:35:34;;;;;;;6.25;3.20;;;11.90;84.20;;;;;;4979676;28;20080;-70
2021/10/24 09:38:03;;;;;;;4.85;2.63;;;11.90;84.60;;;;;;4990153;28;20027;-68
2021/10/24 09:40:34;;;;;;;5.88;2.90;;;12.00;84.70;;;;;;4990682;28;20570;-69
2021/10/24 09:43:29;;;;;;;4.57;2.92;;;12.10;84.30;;;;;;4989145;28;20034;-68
2021/10/24 09:45:57;;;;;;;4.30;2.75;;;12.10;83.50;;;;;;4990828;28;20025;-68
2021/10/24 09:48:25;;;;;;;7.00;2.85;;;12.20;83.70;;;;;;4991539;28;20026;-68
2021/10/24 09:50:53;;;;;;;5.03;2.50;;;12.20;83.70;;;;;;4990257;28;20069;-68
2021/10/24 09:53:26;;;;;;;3.63;2.38;;;12.20;83.40;;;;;;4989421;28;20027;-68
2021/10/24 09:55:59;;;;;;;5.43;2.90;;;12.30;82.80;;;;;;4988215;28;20023;-68
2021/10/24 09:58:45;;;;;;;5.22;2.60;;;12.20;82.70;;;;;;4990713;28;20557;-68
2021/10/24 10:01:16;;;;;;;4.03;2.20;;;12.20;83.00;;;;;;4988645;28;20054;-68
2021/10/24 10:03:43;;;;;;;7.13;2.72;;;12.20;83.00;;;;;;4990277;28;20022;-68
2021/10/24 10:06:08;;;;;;;5.30;2.85;;;12.20;82.70;;;;;;4989832;28;20438;-68
2021/10/24 10:08:37;;;;;;;6.88;3.28;;;12.30;82.70;;;;;;4990324;28;20058;-68
2021/10/24 10:11:23;;;;;;;9.15;4.60;;;12.30;82.80;;;;;;4990651;28;20022;-69
2021/10/24 10:13:59;;;;;;;4.82;2.97;;;12.30;82.50;;;;;;4989272;28;20038;-70
2021/10/24 10:16:41;;;;;;;4.45;2.53;;;12.40;82.70;;;;;;4990790;28;20518;-68
2021/10/24 10:19:11;;;;;;;4.88;2.58;;;12.40;82.20;;;;;;4973163;28;20137;-69
2021/10/24 10:21:41;;;;;;;3.90;2.20;;;12.40;82.00;;;;;;4989601;28;20027;-69
2021/10/24 10:24:10;;;;;;;5.95;2.70;;;12.40;81.50;;;;;;4988989;28;20495;-69
2021/10/24 10:26:41;;;;;;;3.53;2.05;;;12.40;80.90;;;;;;4988109;28;20026;-70
2021/10/24 10:29:14;;;;;;;3.20;2.13;;;12.40;80.90;;;;;;4990212;28;20019;-69
2021/10/24 10:31:41;;;;;;;2.28;1.83;;;12.40;81.10;;;;;;4972274;28;20022;-70
2021/10/24 10:34:08;;;;;;;5.10;2.85;;;12.50;80.90;;;;;;4970504;28;20030;-69
2021/10/24 10:36:49;;;;;;;3.42;1.85;;;12.50;80.60;;;;;;4972733;28;20046;-70
2021/10/24 10:39:44;;;;;;;2.55;1.80;;;12.50;79.90;;;;;;4989913;28;20026;-70
2021/10/24 10:42:28;;;;;;;3.38;1.65;;;12.50;79.90;;;;;;4972791;28;20050;-70
2021/10/24 10:45:16;;;;;;;3.30;1.92;;;12.60;79.90;;;;;;4968721;28;20030;-69
2021/10/24 10:47:47;;;;;;;2.83;1.70;;;12.60;79.40;;;;;;4990443;28;20026;-69
2021/10/24 10:50:28;;;;;;;3.75;2.00;;;12.60;79.50;;;;;;4990165;28;20057;-69
2021/10/24 10:53:11;;;;;;;3.97;2.00;;;12.60;79.30;;;;;;4990057;28;20422;-70
2021/10/24 10:56:17;;;;;;;2.72;1.98;;;12.70;79.30;;;;;;4970563;28;20426;-70
2021/10/24 10:58:49;;;;;;;5.82;1.95;;;12.70;79.30;;;;;;4983732;28;20026;-72
2021/10/24 11:01:31;;;;;;;4.28;2.00;;;12.80;79.40;;;;;;4971541;28;20495;-71
2021/10/24 11:04:14;;;;;;;4.15;1.90;;;12.80;78.80;;;;;;4989998;28;20088;-69
2021/10/24 11:06:40;;;;;;;4.22;1.60;;;12.80;78.80;;;;;;4989681;28;20029;-70
2021/10/24 11:09:07;;;;;;;4.10;1.80;;;12.90;79.20;;;;;;4989969;28;20458;-70
2021/10/24 11:11:41;;;;;;;3.05;1.65;;;13.00;78.80;;;;;;4989671;28;20030;-70
2021/10/24 11:14:16;;;;;;;4.03;1.75;;;13.00;78.10;;;;;;4969399;28;20022;-71
2021/10/24 11:16:49;;;;;;;3.50;1.52;;;13.10;77.80;;;;;;4986702;28;20023;-69
2021/10/24 11:19:27;;;;;;;3.95;1.42;;;13.20;78.00;;;;;;4987264;28;20033;-68
2021/10/24 11:22:04;;;;;;;2.03;1.73;;;13.40;77.10;;;;;;4980658;28;20325;-68
2021/10/24 11:24:49;;;;;;;3.42;1.92;;;13.40;77.30;;;;;;4984405;28;20022;-66
2021/10/24 11:27:30;;;;;;;3.58;1.90;;;13.60;76.70;;;;;;4986573;28;20030;-66
2021/10/24 11:30:00;;;;;;;3.50;1.90;;;13.70;76.40;;;;;;4986773;28;20023;-68
2021/10/24 11:32:37;;;;;;;2.35;1.40;;;13.80;76.30;;;;;;4972003;28;20030;-70
2021/10/24 11:35:08;;;;;;;2.83;1.50;;;13.90;75.80;;;;;;4972935;28;20097;-69
2021/10/24 11:37:41;;;;;;;3.95;1.70;;;14.10;76.00;;;;;;4971537;28;20428;-67
2021/10/24 11:40:13;;;;;;;4.32;1.40;;;14.30;75.80;;;;;;4993451;28;20026;-68
2021/10/24 11:42:39;;;;;;;4.35;2.28;;;14.40;74.90;;;;;;4989666;28;20096;-69
2021/10/24 11:45:22;;;;;;;4.63;1.55;;;14.50;74.90;;;;;;4998850;28;20034;-67
2021/10/24 11:48:21;;;;;;;2.47;1.65;;;14.70;74.10;;;;;;4996737;28;20022;-69
2021/10/24 11:51:00;;;;;;;2.95;1.58;;;14.90;74.20;;;;;;4982142;28;20042;-69
2021/10/24 11:53:43;;;;;;;2.70;1.50;;;15.00;73.90;;;;;;4973234;28;20104;-71
2021/10/24 11:56:12;;;;;;;2.83;1.52;;;15.10;73.10;;;;;;4994255;28;20030;-70
2021/10/24 12:01:35;;;;;;;2.35;1.15;;;15.10;73.20;;;;;;4986437;28;20081;-70
2021/10/24 12:04:06;;;;;;;4.30;1.50;;;15.20;72.80;;;;;;4993066;28;20026;-73
2021/10/24 12:06:54;;;;;;;1.70;1.13;;;15.20;72.40;;;;;;4976086;28;20029;-70
2021/10/24 12:09:30;;;;;;;6.40;2.58;;;15.30;71.70;;;;;;4983012;28;20360;-70
2021/10/24 12:12:09;;;;;;;1.50;1.40;;;15.40;71.70;;;;;;4976031;28;20491;-70
2021/10/24 12:14:53;;;;;;;1.92;1.10;;;15.60;71.50;;;;;;4975978;28;20072;-70
2021/10/24 12:17:37;;;;;;;1.05;0.95;;;15.70;70.20;;;;;;4993683;28;20036;-70
2021/10/24 12:20:23;;;;;;;1.50;0.90;;;15.90;69.60;;;;;;4975921;28;20050;-69
2021/10/24 12:22:51;;;;;;;2.42;1.23;;;15.90;69.30;;;;;;4969352;28;20038;-69
2021/10/24 12:25:35;;;;;;;2.17;1.30;;;16.00;69.50;;;;;;4960035;28;20027;-70
2021/10/24 12:28:11;;;;;;;3.50;1.50;;;16.00;69.10;;;;;;4990520;28;20027;-69
2021/10/24 12:30:37;;;;;;;2.53;0.95;;;16.10;68.80;;;;;;4993100;28;20018;-70
2021/10/24 12:33:11;;;;;;;1.33;1.00;;;16.10;69.10;;;;;;4969224;28;20439;-70
2021/10/24 12:35:45;;;;;;;2.58;1.17;;;16.20;68.50;;;;;;4967708;28;20037;-70
2021/10/24 12:38:11;;;;;;;1.58;1.13;;;16.30;67.50;;;;;;4992908;28;20026;-70
2021/10/24 12:40:37;;;;;;;1.33;0.95;;;16.40;67.50;;;;;;4975934;28;20391;-70
2021/10/24 12:43:11;;;;;;;1.13;1.00;;;16.40;66.80;;;;;;4992021;28;20027;-70
2021/10/24 12:46:01;;;;;;;1.33;1.23;;;16.50;66.40;;;;;;4992921;28;20054;-69
2021/10/24 12:48:40;;;;;;;2.92;1.50;;;16.50;66.10;;;;;;4974930;28;20085;-70
2021/10/24 12:51:43;;;;;;;1.95;1.20;;;16.60;66.50;;;;;;4992510;28;20500;-70
2021/10/24 12:54:10;;;;;;;2.17;1.50;;;16.60;66.50;;;;;;4912348;29;20103;-70
2021/10/24 12:56:40;;;;;;;2.50;1.52;;;16.70;66.50;;;;;;4976430;28;22089;-70
2021/10/24 12:59:06;;;;;;;2.40;1.58;;;16.70;66.40;;;;;;4976258;28;20026;-71
2021/10/24 13:01:36;;;;;;;2.50;1.38;;;16.80;66.50;;;;;;4954717;28;20166;-67
2021/10/24 13:04:04;;;;;;;1.75;1.40;;;16.80;66.00;;;;;;4989521;28;20031;-68